Aviation Digital Data Service (ADDS)

Output produced by METARs form (1103 UTC 30 April 2017)
found at http://www.aviationweather.gov/adds/metars/
 
FKKD 301000Z 00000KT 9999 BKN013 FEW016CB BKN100 29/24 Q1012 RETS NOSIG
TAF FKKD 300500Z 3006/0112 20007KT 4000 TSRA FEW006 BKN009 SCT013CB 
     TEMPO 3006/3007 09015G25KT 1400 +TSRA 
     BECMG 3009/3012 9999 NSW BKN016 FEW020CB 
     TEMPO 3022/0106 TS
       
FKKR 300900Z 26016KT CAVOK 36/23 Q1011 NOSIG
FKKN 300900Z 18008KT CAVOK 28/21 Q1019
FKYS 301000Z 240/3KT 9999 BKN016 28/23 Q1017 NOSIG
TAF FKYS 300500Z 3006/0106 VRB04KT 3000 BR BKN006 FEW020CB 
     BECMG 3007/3009 9999 NSW BKN016 FEW020CB 
     BECMG 3016/3020 TS BKN006 FEW016CB 
     PROB30 
     TEMPO 3020/0102 4000 TSRA 
     BECMG 0102/0106 NSW BKN010